Time;durP1;ratioP1;P1;durP2;ratioP2;P2;SDS_P1;SDS_P2;PMS_P1;PMS_P2;Temp;Humidity;BMP_temperature;BMP_pressure;BME280_temperature;BME280_humidity;BME280_pressure;Samples;Min_cycle;Max_cycle;Signal;HPM_P1;HPM_P2
2022/09/03 00:00:10;;;;;;;3.15;1.98;;;18.20;68.30;;;;;;5032854;28;20037;-64
2022/09/03 00:02:44;;;;;;;2.25;2.05;;;18.10;67.70;;;;;;5033207;28;20022;-64
2022/09/03 00:05:33;;;;;;;1.92;1.80;;;18.00;68.10;;;;;;5030833;28;20045;-64
2022/09/03 00:08:21;;;;;;;2.22;2.03;;;18.00;68.50;;;;;;5031799;28;20139;-64
2022/09/03 00:11:00;;;;;;;4.57;1.98;;;17.80;68.70;;;;;;5027328;28;20064;-64
2022/09/03 00:13:35;;;;;;;3.70;2.00;;;17.80;69.00;;;;;;5032236;28;20026;-64
2022/09/03 00:16:10;;;;;;;1.77;1.67;;;17.70;68.90;;;;;;5031776;28;20098;-64
2022/09/03 00:18:47;;;;;;;1.80;1.70;;;17.60;68.80;;;;;;5028468;28;20040;-64
2022/09/03 00:21:25;;;;;;;3.45;1.88;;;17.50;69.20;;;;;;5031192;28;20116;-64
2022/09/03 00:23:51;;;;;;;4.40;2.00;;;17.50;69.70;;;;;;5034090;28;20041;-64
2022/09/03 00:26:26;;;;;;;3.85;1.90;;;17.40;69.20;;;;;;5032780;28;20129;-64
2022/09/03 00:29:06;;;;;;;2.70;1.80;;;17.40;69.30;;;;;;5033610;28;20030;-63
2022/09/03 00:31:42;;;;;;;2.22;1.80;;;17.40;69.30;;;;;;5032685;28;20025;-64
2022/09/03 00:34:30;;;;;;;3.03;2.08;;;17.40;69.30;;;;;;5030063;28;20029;-64
2022/09/03 00:36:56;;;;;;;2.42;1.70;;;17.40;69.40;;;;;;5018992;28;20044;-64
2022/09/03 00:39:24;;;;;;;4.15;1.80;;;17.40;69.20;;;;;;5033571;28;20497;-64
2022/09/03 00:42:12;;;;;;;2.75;1.70;;;17.30;69.30;;;;;;5030113;28;20037;-64
2022/09/03 00:44:43;;;;;;;2.10;1.88;;;17.30;69.80;;;;;;5027083;28;20037;-64
2022/09/03 00:47:42;;;;;;;2.92;1.85;;;17.30;69.40;;;;;;5029127;28;20041;-64
2022/09/03 00:50:46;;;;;;;2.47;1.80;;;17.30;69.80;;;;;;5030237;28;20037;-64
2022/09/03 00:53:39;;;;;;;2.38;1.52;;;17.30;69.90;;;;;;5029282;28;20466;-64
2022/09/03 00:56:14;;;;;;;1.77;1.67;;;17.40;69.80;;;;;;5030098;28;20040;-65
2022/09/03 00:59:00;;;;;;;2.08;1.80;;;17.40;69.30;;;;;;5030487;28;20570;-64
2022/09/03 01:01:40;;;;;;;2.33;1.98;;;17.40;69.50;;;;;;5030975;28;20033;-65
2022/09/03 01:04:32;;;;;;;2.42;1.77;;;17.40;69.50;;;;;;5030070;28;20033;-64
2022/09/03 01:07:23;;;;;;;1.85;1.70;;;17.40;69.40;;;;;;5029913;28;20580;-64
2022/09/03 01:10:13;;;;;;;1.98;1.77;;;17.40;69.50;;;;;;5032096;28;20040;-64
2022/09/03 01:12:49;;;;;;;3.33;1.65;;;17.40;69.50;;;;;;5029770;28;20052;-64
2022/09/03 01:15:17;;;;;;;1.92;1.70;;;17.40;69.50;;;;;;5026446;28;20452;-64
2022/09/03 01:17:46;;;;;;;3.25;2.00;;;17.40;69.20;;;;;;5031400;28;20040;-64
2022/09/03 01:20:23;;;;;;;3.08;1.70;;;17.40;69.10;;;;;;5027755;28;20640;-64
2022/09/03 01:23:19;;;;;;;2.42;1.80;;;17.40;69.20;;;;;;5021900;28;20037;-64
2022/09/03 01:25:57;;;;;;;5.90;1.90;;;17.50;69.30;;;;;;5031665;28;20033;-64
2022/09/03 01:28:58;;;;;;;1.88;1.60;;;17.50;68.90;;;;;;5029187;28;20033;-64
2022/09/03 01:31:35;;;;;;;5.13;1.90;;;17.50;69.10;;;;;;5026385;28;20045;-64
2022/09/03 01:34:15;;;;;;;2.22;1.42;;;17.40;68.90;;;;;;5027770;28;20107;-64
2022/09/03 01:37:02;;;;;;;2.25;1.63;;;17.40;69.00;;;;;;5030265;28;20073;-64
2022/09/03 01:40:02;;;;;;;3.05;1.45;;;17.30;69.20;;;;;;5029820;28;20033;-64
2022/09/03 01:43:04;;;;;;;3.00;1.63;;;17.40;69.30;;;;;;5027214;28;20041;-64
2022/09/03 01:45:38;;;;;;;3.03;1.35;;;17.30;69.20;;;;;;5029499;28;20042;-64
2022/09/03 01:48:12;;;;;;;2.13;1.70;;;17.40;69.30;;;;;;5030742;28;20045;-64
2022/09/03 01:50:51;;;;;;;2.78;1.40;;;17.30;69.50;;;;;;5029310;28;20033;-64
2022/09/03 01:53:25;;;;;;;1.92;1.48;;;17.40;69.30;;;;;;5029284;28;20128;-64
2022/09/03 01:56:07;;;;;;;2.42;1.50;;;17.40;69.30;;;;;;5030320;28;20041;-64
2022/09/03 01:58:41;;;;;;;2.42;1.73;;;17.40;69.40;;;;;;5028598;28;20229;-64
2022/09/03 02:01:18;;;;;;;2.07;1.50;;;17.30;69.20;;;;;;5030723;28;20038;-64
2022/09/03 02:03:45;;;;;;;1.92;1.67;;;17.30;69.30;;;;;;5030069;28;20061;-64
2022/09/03 02:06:11;;;;;;;4.50;1.67;;;17.20;69.30;;;;;;5029914;28;20045;-64
2022/09/03 02:08:38;;;;;;;2.40;1.60;;;17.20;69.40;;;;;;5029683;28;20040;-64
2022/09/03 02:11:07;;;;;;;2.03;1.80;;;17.20;69.50;;;;;;5026168;28;20109;-64
2022/09/03 02:13:43;;;;;;;2.05;1.80;;;17.20;69.50;;;;;;5028896;28;20039;-64
2022/09/03 02:16:19;;;;;;;4.85;2.00;;;17.20;70.00;;;;;;5030077;28;20091;-64
2022/09/03 02:18:52;;;;;;;3.00;2.15;;;17.10;69.90;;;;;;5027772;28;20048;-64
2022/09/03 02:21:22;;;;;;;2.53;2.20;;;17.00;71.10;;;;;;5029973;28;20057;-64
2022/09/03 02:23:48;;;;;;;2.20;2.00;;;17.00;70.40;;;;;;5029477;28;20556;-64
2022/09/03 02:26:18;;;;;;;3.40;2.10;;;17.00;70.60;;;;;;5030247;28;20072;-64
2022/09/03 02:28:44;;;;;;;2.80;2.60;;;17.00;70.90;;;;;;5028730;28;20179;-64
2022/09/03 02:31:10;;;;;;;5.22;2.30;;;17.00;70.90;;;;;;5029779;28;20056;-64
2022/09/03 02:33:39;;;;;;;2.10;2.00;;;17.00;71.00;;;;;;5028965;28;20049;-64
2022/09/03 02:36:07;;;;;;;2.40;2.20;;;17.00;71.00;;;;;;5033692;28;20112;-64
2022/09/03 02:38:33;;;;;;;3.75;2.30;;;17.00;71.30;;;;;;5032973;28;20033;-64
2022/09/03 02:40:58;;;;;;;2.33;2.15;;;16.90;71.00;;;;;;5032564;28;20412;-64
2022/09/03 02:43:30;;;;;;;2.28;2.15;;;16.90;71.10;;;;;;5032320;28;20075;-65
2022/09/03 02:46:02;;;;;;;4.10;2.28;;;16.90;71.30;;;;;;5033688;28;20048;-64
2022/09/03 02:48:27;;;;;;;2.55;2.10;;;16.90;71.30;;;;;;5029588;28;20409;-64
2022/09/03 02:50:53;;;;;;;2.22;2.03;;;16.90;71.30;;;;;;5031433;28;20037;-63
2022/09/03 02:53:19;;;;;;;2.05;1.95;;;16.90;71.30;;;;;;5034857;28;20314;-64
2022/09/03 02:55:45;;;;;;;2.55;2.00;;;16.90;71.30;;;;;;5033420;28;20133;-64
2022/09/03 02:58:10;;;;;;;3.42;2.08;;;16.90;71.50;;;;;;5033622;28;20041;-64
2022/09/03 03:00:36;;;;;;;2.35;2.13;;;16.90;71.70;;;;;;5031767;28;20064;-64
2022/09/03 03:03:03;;;;;;;2.30;2.10;;;16.90;71.80;;;;;;5034179;28;20041;-64
2022/09/03 03:05:44;;;;;;;3.60;2.28;;;17.00;71.80;;;;;;5031383;28;20037;-64
2022/09/03 03:08:13;;;;;;;4.65;1.85;;;17.00;72.00;;;;;;5033577;28;20452;-64
2022/09/03 03:10:40;;;;;;;2.72;2.20;;;17.00;71.50;;;;;;5030625;28;20404;-64
2022/09/03 03:13:05;;;;;;;3.17;2.10;;;17.00;71.20;;;;;;5031254;28;20049;-64
2022/09/03 03:15:31;;;;;;;2.80;2.60;;;17.00;71.00;;;;;;5030758;28;20075;-64
2022/09/03 03:17:57;;;;;;;3.58;2.50;;;17.00;71.30;;;;;;5031217;28;20052;-64
2022/09/03 03:20:22;;;;;;;2.58;2.30;;;17.00;71.60;;;;;;5031500;28;20457;-64
2022/09/03 03:22:48;;;;;;;2.53;2.35;;;17.00;71.60;;;;;;5033061;28;20136;-64
2022/09/03 03:25:14;;;;;;;2.72;2.20;;;17.00;71.60;;;;;;5032917;28;20096;-64
2022/09/03 03:27:41;;;;;;;2.60;2.38;;;17.00;71.70;;;;;;5033465;28;20429;-64
2022/09/03 03:30:09;;;;;;;2.67;2.13;;;17.00;71.80;;;;;;5030652;28;20030;-64
2022/09/03 03:32:35;;;;;;;3.40;2.40;;;16.90;71.80;;;;;;5030174;28;20033;-64
2022/09/03 03:35:01;;;;;;;4.53;2.50;;;16.90;71.80;;;;;;5033076;28;20459;-64
2022/09/03 03:37:26;;;;;;;2.50;2.30;;;16.90;72.00;;;;;;5030406;28;20130;-64
2022/09/03 03:39:52;;;;;;;2.55;2.33;;;16.90;72.00;;;;;;5032070;28;20523;-64
2022/09/03 03:42:18;;;;;;;2.53;2.35;;;16.90;71.90;;;;;;5032649;28;20029;-64
2022/09/03 03:44:43;;;;;;;2.80;2.50;;;16.80;72.00;;;;;;5031150;28;20569;-63
2022/09/03 03:47:09;;;;;;;3.03;2.40;;;16.80;72.20;;;;;;5029524;28;20080;-64
2022/09/03 03:49:35;;;;;;;2.63;2.42;;;16.80;72.30;;;;;;5030845;28;20037;-64
2022/09/03 03:52:02;;;;;;;2.47;2.28;;;16.80;72.50;;;;;;5030106;28;20123;-63
2022/09/03 03:54:28;;;;;;;2.60;2.40;;;16.80;72.60;;;;;;5030607;28;20056;-64
2022/09/03 03:56:53;;;;;;;2.38;2.28;;;16.80;72.90;;;;;;5031854;28;20124;-64
2022/09/03 03:59:19;;;;;;;2.75;2.30;;;16.80;73.00;;;;;;5030675;28;20045;-64
2022/09/03 04:01:44;;;;;;;2.50;2.30;;;16.80;73.10;;;;;;5029013;28;20538;-64
2022/09/03 04:04:10;;;;;;;2.75;2.13;;;16.80;73.20;;;;;;5033070;28;20038;-63
2022/09/03 04:06:35;;;;;;;2.40;2.20;;;16.80;73.00;;;;;;5030533;28;20400;-64
2022/09/03 04:09:01;;;;;;;3.33;2.15;;;16.80;72.80;;;;;;5031624;28;20025;-64
2022/09/03 04:11:27;;;;;;;5.10;2.20;;;16.80;72.90;;;;;;5028347;28;20380;-63
2022/09/03 04:13:53;;;;;;;2.30;2.10;;;16.80;73.00;;;;;;5031910;28;20033;-64
2022/09/03 04:16:26;;;;;;;2.92;2.30;;;16.90;73.20;;;;;;5031091;28;20615;-64
2022/09/03 04:18:55;;;;;;;3.95;2.33;;;16.90;73.50;;;;;;5027617;28;20049;-64
2022/09/03 04:21:24;;;;;;;2.45;2.25;;;16.90;73.00;;;;;;5030032;28;20034;-63
2022/09/03 04:23:51;;;;;;;2.72;2.47;;;16.90;73.30;;;;;;5031267;28;20052;-64
2022/09/03 04:26:30;;;;;;;3.80;2.40;;;16.90;73.80;;;;;;5031179;28;20041;-63
2022/09/03 04:28:58;;;;;;;2.83;2.60;;;16.90;73.60;;;;;;5031767;28;20037;-62
2022/09/03 04:31:23;;;;;;;4.15;2.47;;;16.90;73.50;;;;;;5029843;28;20134;-64
2022/09/03 04:33:50;;;;;;;2.55;2.35;;;16.90;73.70;;;;;;5030881;28;20497;-63
2022/09/03 04:36:21;;;;;;;2.70;2.47;;;16.90;74.00;;;;;;5030657;28;20192;-64
2022/09/03 04:38:49;;;;;;;2.60;2.40;;;16.90;74.50;;;;;;5028230;28;20045;-64
2022/09/03 04:41:17;;;;;;;2.60;2.40;;;16.80;74.00;;;;;;5030304;28;20037;-63
2022/09/03 04:43:43;;;;;;;2.60;2.40;;;16.90;74.10;;;;;;5028288;28;20132;-64
2022/09/03 04:46:12;;;;;;;2.67;2.47;;;16.80;74.00;;;;;;5032650;28;20132;-63
2022/09/03 04:48:38;;;;;;;2.45;2.25;;;16.80;74.20;;;;;;5026264;28;20432;-63
2022/09/03 04:51:06;;;;;;;5.80;2.67;;;16.90;74.10;;;;;;5030607;28;20022;-63
2022/09/03 04:53:55;;;;;;;2.50;2.38;;;16.90;74.40;;;;;;5029684;28;20041;-64
2022/09/03 04:56:24;;;;;;;2.60;2.40;;;16.90;75.50;;;;;;5031103;28;20045;-64
2022/09/03 04:58:54;;;;;;;3.72;2.92;;;16.90;74.90;;;;;;5029958;28;20531;-64
2022/09/03 05:01:22;;;;;;;4.45;2.95;;;16.90;75.50;;;;;;5030160;28;20033;-64
2022/09/03 05:03:51;;;;;;;3.60;2.80;;;16.90;75.30;;;;;;5029627;28;20033;-64
2022/09/03 05:06:17;;;;;;;2.78;2.47;;;17.00;75.60;;;;;;5029219;28;20033;-63
2022/09/03 05:08:47;;;;;;;2.40;2.30;;;17.00;75.60;;;;;;5030267;28;20528;-64
2022/09/03 05:11:13;;;;;;;2.72;2.53;;;17.00;75.80;;;;;;5025390;28;20075;-64
2022/09/03 05:13:39;;;;;;;3.17;2.53;;;17.00;76.00;;;;;;5029307;28;20040;-64
2022/09/03 05:16:07;;;;;;;3.25;2.42;;;17.00;76.00;;;;;;5030064;28;20064;-64
2022/09/03 05:18:34;;;;;;;5.03;2.40;;;17.00;76.00;;;;;;5025995;28;20045;-64
2022/09/03 05:21:09;;;;;;;3.17;2.63;;;17.10;76.00;;;;;;5030540;28;20040;-63
2022/09/03 05:23:39;;;;;;;3.58;2.67;;;17.10;77.00;;;;;;5029724;28;20099;-63
2022/09/03 05:26:08;;;;;;;4.28;2.83;;;17.10;75.70;;;;;;5029741;28;20034;-64
2022/09/03 05:28:36;;;;;;;3.05;2.75;;;17.20;75.80;;;;;;5028991;28;20355;-63
2022/09/03 05:31:04;;;;;;;4.85;4.35;;;17.20;75.50;;;;;;5030124;28;20470;-63
2022/09/03 05:33:37;;;;;;;3.70;3.35;;;17.20;75.40;;;;;;5031998;28;20493;-64
2022/09/03 05:36:05;;;;;;;38.13;20.83;;;17.20;75.70;;;;;;5033721;28;20037;-63
2022/09/03 05:38:31;;;;;;;10.60;8.02;;;17.20;75.60;;;;;;5031557;28;20041;-64
2022/09/03 05:41:05;;;;;;;5.75;4.25;;;17.30;75.50;;;;;;5027673;28;20409;-64
2022/09/03 05:43:32;;;;;;;6.88;4.32;;;17.30;75.80;;;;;;5031226;28;20045;-63
2022/09/03 05:45:59;;;;;;;9.15;6.15;;;17.30;75.40;;;;;;5028779;28;20105;-64
2022/09/03 05:48:26;;;;;;;6.40;4.80;;;17.40;75.40;;;;;;5029802;28;20033;-64
2022/09/03 05:51:16;;;;;;;18.63;13.98;;;17.40;75.30;;;;;;5032822;28;20040;-63
2022/09/03 05:53:47;;;;;;;22.48;15.70;;;17.40;75.60;;;;;;5031349;28;20037;-64
2022/09/03 05:56:16;;;;;;;7.28;6.57;;;17.40;75.60;;;;;;5031826;28;20505;-63
2022/09/03 05:58:45;;;;;;;7.10;6.38;;;17.40;75.50;;;;;;5027055;28;20041;-64
2022/09/03 06:01:15;;;;;;;3.83;3.53;;;17.40;75.60;;;;;;5032186;28;20566;-63
2022/09/03 06:03:42;;;;;;;5.15;3.17;;;17.40;76.50;;;;;;5031955;28;20041;-64
2022/09/03 06:06:09;;;;;;;3.90;3.60;;;17.50;75.60;;;;;;5029065;28;20044;-64
2022/09/03 06:08:37;;;;;;;3.28;2.92;;;17.50;75.60;;;;;;5030321;28;20030;-63
2022/09/03 06:11:04;;;;;;;3.90;2.97;;;17.50;75.80;;;;;;5031969;28;20061;-62
2022/09/03 06:13:31;;;;;;;3.50;3.30;;;17.60;75.80;;;;;;5033722;28;20060;-64
2022/09/03 06:16:05;;;;;;;3.42;3.10;;;17.60;76.00;;;;;;5036998;28;20037;-64
2022/09/03 06:18:31;;;;;;;5.85;4.00;;;17.60;76.10;;;;;;5034320;28;20487;-63
2022/09/03 06:21:01;;;;;;;3.72;3.42;;;17.60;76.30;;;;;;5035010;28;20037;-64
2022/09/03 06:23:29;;;;;;;4.35;3.72;;;17.70;76.60;;;;;;5029854;28;20057;-63
2022/09/03 06:26:04;;;;;;;5.32;4.20;;;17.70;76.80;;;;;;5031535;28;20331;-64
2022/09/03 06:28:33;;;;;;;5.72;4.18;;;17.70;77.70;;;;;;5026022;28;20033;-64
2022/09/03 06:31:00;;;;;;;4.63;4.15;;;17.70;77.20;;;;;;5030992;28;20033;-64
2022/09/03 06:33:26;;;;;;;5.07;4.57;;;17.80;77.40;;;;;;5024645;28;20470;-63
2022/09/03 06:35:58;;;;;;;5.90;4.60;;;17.80;77.60;;;;;;5025782;28;20421;-64
2022/09/03 06:38:25;;;;;;;4.90;4.50;;;17.80;78.20;;;;;;5029938;28;20051;-64
2022/09/03 06:40:55;;;;;;;5.70;4.47;;;17.80;78.20;;;;;;5026405;28;20046;-64
2022/09/03 06:43:22;;;;;;;7.70;4.95;;;17.80;78.60;;;;;;5025423;28;20398;-63
2022/09/03 06:46:02;;;;;;;4.80;4.38;;;17.90;78.90;;;;;;5028061;28;20040;-62
2022/09/03 06:48:29;;;;;;;4.85;4.25;;;17.90;80.00;;;;;;5027189;28;20033;-63
2022/09/03 06:51:02;;;;;;;5.30;4.80;;;17.90;79.20;;;;;;5024420;28;20065;-64
2022/09/03 06:53:33;;;;;;;5.13;4.72;;;18.00;79.90;;;;;;5034648;28;20124;-63
2022/09/03 06:56:10;;;;;;;5.78;4.90;;;18.00;79.60;;;;;;5034117;28;20033;-63
2022/09/03 06:58:42;;;;;;;5.15;4.65;;;18.10;80.50;;;;;;5023928;28;20048;-63
2022/09/03 07:01:09;;;;;;;5.05;4.65;;;18.10;80.10;;;;;;5028647;28;20041;-62
2022/09/03 07:03:36;;;;;;;5.40;4.85;;;18.20;80.30;;;;;;5023814;28;20029;-63
2022/09/03 07:06:05;;;;;;;5.50;4.45;;;18.20;80.40;;;;;;5030703;28;20536;-64
2022/09/03 07:08:31;;;;;;;4.60;4.22;;;18.30;80.60;;;;;;5034322;28;20030;-63
2022/09/03 07:11:07;;;;;;;5.05;4.38;;;18.40;80.50;;;;;;5033469;28;20041;-63
2022/09/03 07:13:40;;;;;;;4.90;4.50;;;18.50;80.80;;;;;;5030505;28;20482;-63
2022/09/03 07:16:12;;;;;;;4.90;4.38;;;18.50;80.70;;;;;;5028538;28;20175;-64
2022/09/03 07:18:38;;;;;;;4.30;4.00;;;18.60;81.30;;;;;;5029449;28;20049;-64
2022/09/03 07:21:07;;;;;;;4.30;3.90;;;18.60;80.80;;;;;;5025461;28;20045;-61
2022/09/03 07:23:33;;;;;;;3.88;3.58;;;18.70;81.00;;;;;;5030607;28;20040;-63
2022/09/03 07:26:02;;;;;;;3.92;3.55;;;18.80;80.90;;;;;;5032094;28;20091;-64
2022/09/03 07:28:30;;;;;;;3.80;3.40;;;18.90;81.10;;;;;;5032275;28;20030;-63
2022/09/03 07:31:03;;;;;;;3.78;3.38;;;18.90;80.80;;;;;;5032327;28;20039;-63
2022/09/03 07:33:30;;;;;;;3.47;3.17;;;19.10;80.90;;;;;;5034351;28;20038;-63
2022/09/03 07:36:00;;;;;;;3.00;2.80;;;19.10;80.30;;;;;;5034347;28;20041;-63
2022/09/03 07:38:26;;;;;;;2.40;2.20;;;19.20;80.30;;;;;;5034039;28;20037;-64
2022/09/03 07:41:00;;;;;;;2.55;2.35;;;19.30;80.10;;;;;;5031849;28;20087;-63
2022/09/03 07:43:28;;;;;;;2.28;2.10;;;19.40;79.90;;;;;;5033264;28;20033;-63
2022/09/03 07:45:55;;;;;;;2.42;2.25;;;19.50;80.30;;;;;;5031419;28;20571;-64
2022/09/03 07:48:21;;;;;;;2.17;1.98;;;19.50;79.20;;;;;;5032763;28;20037;-62
2022/09/03 07:50:47;;;;;;;1.98;1.88;;;19.60;78.70;;;;;;5034611;28;20029;-63
2022/09/03 07:53:16;;;;;;;1.98;1.88;;;19.70;78.60;;;;;;5033263;28;20120;-63
2022/09/03 07:55:43;;;;;;;1.67;1.58;;;19.80;79.20;;;;;;5024417;28;20049;-64
2022/09/03 07:58:13;;;;;;;1.50;1.40;;;19.90;78.90;;;;;;5031970;28;20041;-65
2022/09/03 08:00:39;;;;;;;2.20;1.60;;;19.90;77.20;;;;;;5027221;28;20033;-64
2022/09/03 08:03:07;;;;;;;1.50;1.40;;;20.10;77.00;;;;;;5027587;28;20064;-64
2022/09/03 08:05:35;;;;;;;1.42;1.33;;;20.00;76.70;;;;;;5033939;28;20120;-63
2022/09/03 08:08:04;;;;;;;1.20;1.10;;;20.10;76.30;;;;;;5033287;28;20033;-64
2022/09/03 08:10:33;;;;;;;1.30;1.20;;;20.10;76.00;;;;;;5034373;28;20029;-64
2022/09/03 08:12:59;;;;;;;1.40;1.30;;;20.10;75.60;;;;;;5028058;28;20047;-64
2022/09/03 08:15:25;;;;;;;1.20;1.20;;;20.10;75.40;;;;;;5029309;28;20029;-64
2022/09/03 08:17:51;;;;;;;1.42;1.30;;;20.20;75.40;;;;;;5033372;28;20491;-63
2022/09/03 08:20:18;;;;;;;1.42;1.33;;;20.20;75.40;;;;;;5029050;28;20041;-63
2022/09/03 08:22:43;;;;;;;1.40;1.30;;;20.30;75.10;;;;;;5032699;28;20029;-64
2022/09/03 08:25:09;;;;;;;1.30;1.20;;;20.30;74.90;;;;;;5026486;28;20337;-63
2022/09/03 08:27:36;;;;;;;1.48;1.33;;;20.30;74.70;;;;;;5030341;28;20064;-64
2022/09/03 08:30:03;;;;;;;1.50;1.40;;;20.40;74.30;;;;;;5028000;28;20175;-64
2022/09/03 08:32:28;;;;;;;1.42;1.33;;;20.40;74.00;;;;;;5028629;28;20036;-63
2022/09/03 08:34:54;;;;;;;2.75;1.80;;;20.40;73.90;;;;;;5031255;28;20033;-64
2022/09/03 08:37:26;;;;;;;3.30;3.00;;;20.40;73.90;;;;;;5031919;28;20042;-63
2022/09/03 08:39:52;;;;;;;2.15;1.60;;;20.50;73.90;;;;;;5029366;28;20412;-64
2022/09/03 08:42:30;;;;;;;2.75;1.65;;;20.50;73.50;;;;;;5031469;28;20037;-64
2022/09/03 08:45:04;;;;;;;1.80;1.70;;;20.50;73.70;;;;;;5030133;28;20493;-64
2022/09/03 08:47:48;;;;;;;2.00;1.90;;;20.50;73.90;;;;;;5032056;28;20136;-64
2022/09/03 08:50:26;;;;;;;3.67;1.80;;;20.50;74.40;;;;;;5032529;28;20580;-64
2022/09/03 08:53:14;;;;;;;1.60;1.50;;;20.60;74.50;;;;;;5015052;28;20707;-64
2022/09/03 08:55:49;;;;;;;1.80;1.50;;;20.70;74.60;;;;;;5012820;28;20030;-64
2022/09/03 08:58:15;;;;;;;;;;;20.70;73.90;;;;;;5014128;28;20576;-63
2022/09/03 09:00:49;;;;;;;1.40;1.30;;;20.80;74.00;;;;;;5014950;28;19917;-64
2022/09/03 09:03:20;;;;;;;2.65;1.40;;;20.90;73.70;;;;;;5012939;28;20038;-64
2022/09/03 09:05:57;;;;;;;6.68;1.83;;;20.90;73.70;;;;;;5010992;28;20176;-64
2022/09/03 09:08:40;;;;;;;1.48;1.38;;;21.00;74.20;;;;;;5007027;28;20068;-64
2022/09/03 09:11:21;;;;;;;1.98;1.00;;;21.10;74.90;;;;;;5030057;28;20032;-64
2022/09/03 09:13:59;;;;;;;1.02;1.02;;;21.20;73.40;;;;;;5031443;28;20095;-64
2022/09/03 09:16:44;;;;;;;1.90;0.98;;;21.20;73.20;;;;;;5033201;28;20060;-64
2022/09/03 09:19:10;;;;;;;0.82;0.70;;;21.30;72.50;;;;;;5031472;28;20041;-64
2022/09/03 09:22:00;;;;;;;1.38;0.85;;;21.40;72.10;;;;;;5035033;28;20059;-62
2022/09/03 09:24:31;;;;;;;1.45;1.00;;;21.50;71.00;;;;;;5034389;28;20036;-63
2022/09/03 09:27:03;;;;;;;1.15;0.90;;;21.60;71.30;;;;;;5031659;28;20505;-65
2022/09/03 09:29:37;;;;;;;0.90;0.85;;;21.60;71.30;;;;;;5033348;28;20088;-64
2022/09/03 09:32:04;;;;;;;0.80;0.80;;;21.70;70.90;;;;;;5031476;28;20047;-64
2022/09/03 09:34:34;;;;;;;1.00;1.00;;;21.80;71.10;;;;;;5031724;28;20500;-64
2022/09/03 09:37:04;;;;;;;1.38;0.90;;;21.90;70.10;;;;;;5033161;28;20407;-64
2022/09/03 09:39:30;;;;;;;1.10;1.00;;;22.00;69.90;;;;;;5033707;28;20037;-64
2022/09/03 09:42:10;;;;;;;1.13;0.98;;;22.10;70.00;;;;;;5032806;28;20036;-64
2022/09/03 09:44:42;;;;;;;1.15;1.08;;;22.10;69.60;;;;;;5035487;28;20051;-64
2022/09/03 09:47:30;;;;;;;1.20;1.10;;;22.20;70.90;;;;;;5035623;28;20128;-64
2022/09/03 09:49:58;;;;;;;1.13;0.50;;;22.30;69.00;;;;;;5034916;28;20167;-64
2022/09/03 09:52:27;;;;;;;0.80;0.70;;;22.40;68.30;;;;;;5036212;28;20040;-64
2022/09/03 09:55:07;;;;;;;0.85;0.60;;;22.50;67.40;;;;;;5036133;28;20025;-64
2022/09/03 09:57:33;;;;;;;0.60;0.60;;;22.50;66.70;;;;;;5034858;28;20049;-64
2022/09/03 10:00:16;;;;;;;0.90;0.90;;;22.60;67.00;;;;;;5032913;28;21703;-64
2022/09/03 10:02:55;;;;;;;0.90;0.75;;;22.70;67.00;;;;;;5033294;28;20189;-65
2022/09/03 10:05:32;;;;;;;0.93;0.80;;;22.70;65.50;;;;;;5034775;28;20166;-64
2022/09/03 10:08:04;;;;;;;1.58;0.75;;;22.80;64.80;;;;;;5036355;28;20289;-64
2022/09/03 10:10:36;;;;;;;0.75;0.75;;;22.80;64.80;;;;;;5035297;28;20096;-63
2022/09/03 10:13:08;;;;;;;0.75;0.60;;;22.80;65.30;;;;;;5031365;28;20037;-64
2022/09/03 10:16:07;;;;;;;0.80;0.80;;;22.80;65.50;;;;;;5037657;28;20052;-64
2022/09/03 10:18:40;;;;;;;0.70;0.70;;;22.80;65.90;;;;;;5036719;28;20557;-63
2022/09/03 10:21:16;;;;;;;0.85;0.70;;;22.80;65.90;;;;;;5034222;28;20378;-65
2022/09/03 10:23:58;;;;;;;1.08;0.65;;;22.80;66.50;;;;;;5035985;28;20033;-64
2022/09/03 10:26:33;;;;;;;0.60;0.60;;;22.90;65.50;;;;;;5032536;28;20405;-64
2022/09/03 10:29:00;;;;;;;;;;;22.90;65.70;;;;;;5037549;28;20116;-64
2022/09/03 10:31:32;;;;;;;0.80;0.80;;;23.00;65.30;;;;;;5034114;28;19916;-64
2022/09/03 10:34:20;;;;;;;1.55;0.80;;;23.00;65.20;;;;;;5035867;28;20088;-63
2022/09/03 10:37:23;;;;;;;0.77;0.77;;;23.00;64.40;;;;;;5033835;28;20519;-62
2022/09/03 10:39:58;;;;;;;3.20;0.90;;;23.00;64.70;;;;;;5035008;28;20044;-64
2022/09/03 10:42:41;;;;;;;2.20;0.80;;;23.20;66.10;;;;;;5035690;28;20512;-64
2022/09/03 10:45:16;;;;;;;1.10;1.00;;;23.20;65.70;;;;;;5036127;28;20033;-63
2022/09/03 10:48:18;;;;;;;0.80;0.80;;;23.30;65.70;;;;;;5035632;28;20041;-64
2022/09/03 10:51:03;;;;;;;0.90;0.90;;;23.40;65.30;;;;;;5032795;28;20040;-64
2022/09/03 10:53:40;;;;;;;0.80;0.80;;;23.50;64.70;;;;;;5037837;28;20039;-63
2022/09/03 10:56:22;;;;;;;1.65;0.90;;;23.50;64.30;;;;;;5032442;28;20087;-63
2022/09/03 10:58:53;;;;;;;1.20;1.10;;;23.60;64.50;;;;;;5036846;28;20037;-63
2022/09/03 11:01:51;;;;;;;1.20;1.10;;;23.70;64.90;;;;;;5035442;28;20570;-65
2022/09/03 11:04:37;;;;;;;1.10;0.90;;;23.80;64.50;;;;;;5040381;28;20059;-64
2022/09/03 11:07:06;;;;;;;0.75;0.75;;;23.90;64.50;;;;;;5015121;28;20034;-65
2022/09/03 11:09:42;;;;;;;1.10;1.00;;;23.90;63.90;;;;;;5008330;28;20049;-64
2022/09/03 11:12:20;;;;;;;2.05;0.90;;;24.00;63.40;;;;;;5009509;28;20108;-64
2022/09/03 11:14:52;;;;;;;1.08;0.98;;;24.10;63.30;;;;;;5008350;28;20472;-65
2022/09/03 11:17:26;;;;;;;1.15;0.90;;;24.20;63.40;;;;;;5010557;28;20034;-65
2022/09/03 11:20:05;;;;;;;0.90;0.90;;;24.30;62.50;;;;;;5011076;28;20913;-64
2022/09/03 11:22:31;;;;;;;0.93;0.88;;;24.40;62.60;;;;;;5012756;28;20045;-65
2022/09/03 11:25:00;;;;;;;0.98;0.95;;;24.50;62.70;;;;;;5009063;28;20431;-64
2022/09/03 11:27:41;;;;;;;0.93;0.80;;;24.60;61.40;;;;;;5003094;28;20052;-64
2022/09/03 11:30:13;;;;;;;0.90;0.90;;;24.70;60.50;;;;;;5009874;28;20044;-64
2022/09/03 11:32:42;;;;;;;0.80;0.77;;;24.80;60.10;;;;;;5016847;28;20122;-64
2022/09/03 11:35:37;;;;;;;0.98;0.90;;;24.80;59.80;;;;;;5016036;28;20070;-64
2022/09/03 11:38:27;;;;;;;1.00;1.00;;;24.80;58.00;;;;;;5014100;28;20026;-64
2022/09/03 11:41:00;;;;;;;5.15;1.20;;;24.70;58.60;;;;;;5012723;28;20528;-64
2022/09/03 11:43:29;;;;;;;9.00;1.90;;;24.70;59.20;;;;;;5014945;28;20040;-61
2022/09/03 11:46:04;;;;;;;1.73;1.17;;;24.50;61.70;;;;;;5013229;28;20704;-61
2022/09/03 11:48:35;;;;;;;1.48;0.85;;;24.20;62.20;;;;;;5016781;28;20038;-60
2022/09/03 11:51:00;;;;;;;1.85;0.93;;;24.00;62.40;;;;;;5015189;28;20034;-59
2022/09/03 11:53:33;;;;;;;2.17;0.90;;;23.70;63.10;;;;;;5014305;28;20040;-61
2022/09/03 11:56:19;;;;;;;2.28;0.88;;;23.40;64.30;;;;;;5014910;28;20049;-61
2022/09/03 11:58:45;;;;;;;1.63;1.13;;;23.20;65.70;;;;;;5014385;28;20103;-61
2022/09/03 12:01:14;;;;;;;3.35;0.93;;;23.00;66.40;;;;;;5014967;28;20038;-62
2022/09/03 12:03:42;;;;;;;2.55;1.00;;;22.80;67.60;;;;;;5015384;28;20030;-60
2022/09/03 12:06:27;;;;;;;1.33;1.10;;;22.70;68.00;;;;;;5014596;28;20045;-62
2022/09/03 12:09:51;;;;;;;1.15;1.00;;;22.60;69.00;;;;;;5022595;28;20120;-60
2022/09/03 12:12:46;;;;;;;2.40;0.85;;;22.60;70.20;;;;;;5013447;28;20060;-61
2022/09/03 12:15:48;;;;;;;2.35;1.00;;;22.50;70.60;;;;;;5021811;28;20087;-61
2022/09/03 12:18:28;;;;;;;2.25;1.10;;;22.50;71.80;;;;;;5011870;28;20055;-61
2022/09/03 12:20:58;;;;;;;1.67;1.10;;;22.50;71.20;;;;;;5015555;28;20029;-61
2022/09/03 12:23:48;;;;;;;2.17;0.90;;;22.40;71.60;;;;;;5031840;28;20041;-61
2022/09/03 12:26:19;;;;;;;1.10;1.00;;;22.40;72.10;;;;;;5021487;28;20038;-62
2022/09/03 12:28:48;;;;;;;0.88;0.88;;;22.40;70.90;;;;;;5030315;28;20043;-60
2022/09/03 12:31:24;;;;;;;1.02;0.98;;;22.40;70.40;;;;;;5029297;28;20137;-61
2022/09/03 12:33:58;;;;;;;0.80;0.80;;;22.40;70.30;;;;;;5032254;28;20041;-61
2022/09/03 12:36:37;;;;;;;1.00;1.00;;;22.30;70.00;;;;;;5035441;28;20522;-62
2022/09/03 12:39:26;;;;;;;0.82;0.60;;;22.30;70.10;;;;;;5032261;28;20277;-62
2022/09/03 12:42:06;;;;;;;2.10;1.10;;;22.20;68.30;;;;;;5035066;28;20037;-60
2022/09/03 12:44:35;;;;;;;0.57;0.57;;;22.20;68.70;;;;;;5032729;28;20068;-62
2022/09/03 12:47:04;;;;;;;1.63;0.70;;;22.20;68.30;;;;;;5034395;28;20470;-62
2022/09/03 12:49:39;;;;;;;1.25;0.80;;;22.10;68.80;;;;;;5029996;28;20034;-62
2022/09/03 12:52:28;;;;;;;0.50;0.50;;;22.10;69.40;;;;;;5033382;28;20128;-61
2022/09/03 12:55:08;;;;;;;1.98;0.75;;;22.10;68.90;;;;;;5034678;28;20307;-61
2022/09/03 12:57:41;;;;;;;0.70;0.50;;;22.10;69.50;;;;;;5035880;28;20051;-62
2022/09/03 13:00:09;;;;;;;0.73;0.63;;;22.10;69.20;;;;;;5034521;28;20611;-61
2022/09/03 13:02:46;;;;;;;0.52;0.50;;;22.20;69.30;;;;;;5034346;28;20761;-62
2022/09/03 13:05:17;;;;;;;0.40;0.40;;;22.20;68.90;;;;;;5035929;28;20051;-61
2022/09/03 13:07:51;;;;;;;1.25;0.70;;;22.20;69.00;;;;;;5034567;28;20509;-61
2022/09/03 13:10:27;;;;;;;0.67;0.67;;;22.30;69.20;;;;;;5035304;28;20037;-63
2022/09/03 13:12:58;;;;;;;1.10;1.00;;;22.40;70.60;;;;;;5032770;28;20041;-62
2022/09/03 13:15:25;;;;;;;2.67;0.90;;;22.40;69.70;;;;;;5033153;28;20022;-63
2022/09/03 13:18:30;;;;;;;1.13;1.02;;;22.50;69.50;;;;;;5034634;28;20503;-62